sensor_id;sensor_type;location;lat;lon;timestamp;pressure;altitude;pressure_sealevel;temperature;humidity
48846;BME280;34665;51.886;5.436;2023-02-19T00:01:09;101607.25;;;17.64;100.00
48846;BME280;34665;51.886;5.436;2023-02-19T00:03:35;101613.09;;;18.05;100.00
48846;BME280;34665;51.886;5.436;2023-02-19T00:06:03;101616.31;;;17.95;100.00
48846;BME280;34665;51.886;5.436;2023-02-19T00:08:32;101608.19;;;17.76;100.00
48846;BME280;34665;51.886;5.436;2023-02-19T00:11:12;101604.50;;;17.27;100.00
48846;BME280;34665;51.886;5.436;2023-02-19T00:13:41;101608.84;;;18.28;100.00
48846;BME280;34665;51.886;5.436;2023-02-19T00:16:08;101614.97;;;17.42;100.00
48846;BME280;34665;51.886;5.436;2023-02-19T00:18:34;101611.81;;;17.45;100.00
48846;BME280;34665;51.886;5.436;2023-02-19T00:21:00;101616.81;;;17.85;100.00
48846;BME280;34665;51.886;5.436;2023-02-19T00:23:26;101626.44;;;17.62;100.00
48846;BME280;34665;51.886;5.436;2023-02-19T00:25:53;101625.06;;;17.02;100.00
48846;BME280;34665;51.886;5.436;2023-02-19T00:28:19;101621.66;;;17.14;100.00
48846;BME280;34665;51.886;5.436;2023-02-19T00:30:45;101618.34;;;17.37;100.00
48846;BME280;34665;51.886;5.436;2023-02-19T00:33:10;101625.38;;;17.63;100.00
48846;BME280;34665;51.886;5.436;2023-02-19T00:35:35;101626.28;;;17.57;100.00
48846;BME280;34665;51.886;5.436;2023-02-19T00:38:02;101628.22;;;17.25;100.00
48846;BME280;34665;51.886;5.436;2023-02-19T00:40:27;101628.00;;;17.01;100.00
48846;BME280;34665;51.886;5.436;2023-02-19T00:42:53;101627.34;;;17.31;100.00
48846;BME280;34665;51.886;5.436;2023-02-19T00:45:18;101621.53;;;17.27;100.00
48846;BME280;34665;51.886;5.436;2023-02-19T00:47:44;101627.78;;;17.53;100.00
48846;BME280;34665;51.886;5.436;2023-02-19T00:50:09;101618.81;;;17.53;100.00
48846;BME280;34665;51.886;5.436;2023-02-19T00:52:35;101612.22;;;17.48;100.00
48846;BME280;34665;51.886;5.436;2023-02-19T00:55:01;101616.75;;;17.73;100.00
48846;BME280;34665;51.886;5.436;2023-02-19T00:57:27;101625.56;;;17.18;100.00
48846;BME280;34665;51.886;5.436;2023-02-19T00:59:53;101611.81;;;17.45;100.00
48846;BME280;34665;51.886;5.436;2023-02-19T01:02:18;101612.81;;;17.25;100.00
48846;BME280;34665;51.886;5.436;2023-02-19T01:04:44;101629.72;;;17.20;100.00
48846;BME280;34665;51.886;5.436;2023-02-19T01:07:09;101625.19;;;16.82;100.00
48846;BME280;34665;51.886;5.436;2023-02-19T01:09:35;101630.34;;;16.84;100.00
48846;BME280;34665;51.886;5.436;2023-02-19T01:12:00;101627.88;;;17.14;100.00
48846;BME280;34665;51.886;5.436;2023-02-19T01:14:26;101633.84;;;17.23;100.00
48846;BME280;34665;51.886;5.436;2023-02-19T01:16:51;101637.09;;;17.06;100.00
48846;BME280;34665;51.886;5.436;2023-02-19T01:19:17;101641.72;;;17.50;100.00
48846;BME280;34665;51.886;5.436;2023-02-19T01:21:42;101649.81;;;16.67;100.00
48846;BME280;34665;51.886;5.436;2023-02-19T01:24:09;101639.47;;;16.57;100.00
48846;BME280;34665;51.886;5.436;2023-02-19T01:26:34;101643.06;;;17.41;100.00
48846;BME280;34665;51.886;5.436;2023-02-19T01:29:01;101657.50;;;17.02;100.00
48846;BME280;34665;51.886;5.436;2023-02-19T01:31:27;101654.19;;;16.94;100.00
48846;BME280;34665;51.886;5.436;2023-02-19T01:33:59;101653.91;;;16.31;100.00
48846;BME280;34665;51.886;5.436;2023-02-19T01:36:26;101654.59;;;16.97;100.00
48846;BME280;34665;51.886;5.436;2023-02-19T01:38:52;101648.78;;;17.00;100.00
48846;BME280;34665;51.886;5.436;2023-02-19T01:41:21;101652.84;;;16.32;100.00
48846;BME280;34665;51.886;5.436;2023-02-19T01:44:07;101665.47;;;16.84;100.00
48846;BME280;34665;51.886;5.436;2023-02-19T01:46:39;101664.88;;;16.82;100.00
48846;BME280;34665;51.886;5.436;2023-02-19T01:51:46;101669.16;;;17.28;100.00
48846;BME280;34665;51.886;5.436;2023-02-19T01:54:16;101672.63;;;16.71;100.00
48846;BME280;34665;51.886;5.436;2023-02-19T01:56:44;101665.56;;;16.70;100.00
48846;BME280;34665;51.886;5.436;2023-02-19T01:59:11;101667.34;;;16.83;100.00
48846;BME280;34665;51.886;5.436;2023-02-19T02:01:37;101671.38;;;17.13;100.00
48846;BME280;34665;51.886;5.436;2023-02-19T02:04:05;101673.13;;;17.51;100.00
48846;BME280;34665;51.886;5.436;2023-02-19T02:06:42;101667.44;;;17.34;100.00
48846;BME280;34665;51.886;5.436;2023-02-19T02:09:10;101672.06;;;16.95;100.00
48846;BME280;34665;51.886;5.436;2023-02-19T02:11:55;101670.00;;;16.97;100.00
48846;BME280;34665;51.886;5.436;2023-02-19T02:14:24;101669.44;;;17.45;100.00
48846;BME280;34665;51.886;5.436;2023-02-19T02:17:12;101675.22;;;17.24;100.00
48846;BME280;34665;51.886;5.436;2023-02-19T02:27:52;101666.34;;;17.42;100.00
48846;BME280;34665;51.886;5.436;2023-02-19T02:30:34;101664.28;;;17.62;100.00
48846;BME280;34665;51.886;5.436;2023-02-19T02:33:34;101669.38;;;17.27;100.00
48846;BME280;34665;51.886;5.436;2023-02-19T02:36:13;101661.59;;;17.62;100.00
48846;BME280;34665;51.886;5.436;2023-02-19T02:38:43;101675.72;;;17.39;100.00
48846;BME280;34665;51.886;5.436;2023-02-19T02:41:12;101676.91;;;17.69;100.00
48846;BME280;34665;51.886;5.436;2023-02-19T02:43:38;101662.69;;;17.55;100.00
48846;BME280;34665;51.886;5.436;2023-02-19T02:46:04;101672.69;;;17.29;100.00
48846;BME280;34665;51.886;5.436;2023-02-19T02:54:09;101693.69;;;17.52;100.00
48846;BME280;34665;51.886;5.436;2023-02-19T02:56:55;101677.25;;;17.79;100.00
48846;BME280;34665;51.886;5.436;2023-02-19T02:59:26;101692.63;;;18.04;100.00
48846;BME280;34665;51.886;5.436;2023-02-19T03:02:08;101697.75;;;17.68;100.00
48846;BME280;34665;51.886;5.436;2023-02-19T03:04:42;101701.31;;;17.62;100.00
48846;BME280;34665;51.886;5.436;2023-02-19T03:07:47;101689.34;;;17.51;100.00
48846;BME280;34665;51.886;5.436;2023-02-19T03:10:19;101693.50;;;16.89;100.00
48846;BME280;34665;51.886;5.436;2023-02-19T03:12:49;101700.59;;;17.48;100.00
48846;BME280;34665;51.886;5.436;2023-02-19T03:15:40;101703.81;;;17.38;100.00
48846;BME280;34665;51.886;5.436;2023-02-19T03:18:28;101700.88;;;17.40;100.00
48846;BME280;34665;51.886;5.436;2023-02-19T03:21:16;101698.25;;;17.58;100.00
48846;BME280;34665;51.886;5.436;2023-02-19T03:23:44;101705.88;;;17.87;100.00
48846;BME280;34665;51.886;5.436;2023-02-19T03:26:31;101698.88;;;17.79;100.00
48846;BME280;34665;51.886;5.436;2023-02-19T03:28:59;101709.00;;;17.65;100.00
48846;BME280;34665;51.886;5.436;2023-02-19T03:31:44;101711.59;;;17.28;100.00
48846;BME280;34665;51.886;5.436;2023-02-19T03:34:16;101713.47;;;17.78;100.00
48846;BME280;34665;51.886;5.436;2023-02-19T03:36:55;101708.22;;;17.32;100.00
48846;BME280;34665;51.886;5.436;2023-02-19T03:39:23;101712.34;;;17.35;100.00
48846;BME280;34665;51.886;5.436;2023-02-19T03:41:58;101705.25;;;18.10;100.00
48846;BME280;34665;51.886;5.436;2023-02-19T03:44:42;101713.13;;;17.68;100.00
48846;BME280;34665;51.886;5.436;2023-02-19T03:47:26;101719.63;;;17.85;100.00
48846;BME280;34665;51.886;5.436;2023-02-19T03:49:57;101720.94;;;17.57;100.00
48846;BME280;34665;51.886;5.436;2023-02-19T03:52:50;101723.50;;;17.71;100.00
48846;BME280;34665;51.886;5.436;2023-02-19T03:57:57;101735.97;;;18.23;100.00
48846;BME280;34665;51.886;5.436;2023-02-19T04:00:56;101740.38;;;17.91;100.00
48846;BME280;34665;51.886;5.436;2023-02-19T04:05:58;101747.75;;;17.84;100.00
48846;BME280;34665;51.886;5.436;2023-02-19T04:08:26;101746.75;;;17.53;100.00
48846;BME280;34665;51.886;5.436;2023-02-19T04:10:59;101755.25;;;17.82;100.00
48846;BME280;34665;51.886;5.436;2023-02-19T04:13:54;101757.34;;;17.55;100.00
48846;BME280;34665;51.886;5.436;2023-02-19T04:16:24;101764.06;;;17.71;100.00
48846;BME280;34665;51.886;5.436;2023-02-19T04:18:54;101756.25;;;18.32;100.00
48846;BME280;34665;51.886;5.436;2023-02-19T04:21:21;101764.59;;;17.86;100.00
48846;BME280;34665;51.886;5.436;2023-02-19T04:23:48;101766.63;;;17.91;100.00
48846;BME280;34665;51.886;5.436;2023-02-19T04:26:15;101777.59;;;18.03;100.00
48846;BME280;34665;51.886;5.436;2023-02-19T04:28:41;101773.47;;;17.94;100.00
48846;BME280;34665;51.886;5.436;2023-02-19T04:31:09;101767.84;;;18.39;100.00
48846;BME280;34665;51.886;5.436;2023-02-19T04:33:35;101775.03;;;18.08;100.00
48846;BME280;34665;51.886;5.436;2023-02-19T04:36:01;101776.44;;;17.85;100.00
48846;BME280;34665;51.886;5.436;2023-02-19T04:38:26;101776.44;;;17.85;100.00
48846;BME280;34665;51.886;5.436;2023-02-19T04:40:52;101781.13;;;17.97;100.00
48846;BME280;34665;51.886;5.436;2023-02-19T04:43:17;101788.00;;;17.42;100.00
48846;BME280;34665;51.886;5.436;2023-02-19T04:45:43;101797.44;;;17.32;100.00
48846;BME280;34665;51.886;5.436;2023-02-19T04:48:09;101791.41;;;17.62;100.00
48846;BME280;34665;51.886;5.436;2023-02-19T04:50:37;101801.50;;;17.74;100.00
48846;BME280;34665;51.886;5.436;2023-02-19T04:53:03;101804.41;;;17.47;100.00
48846;BME280;34665;51.886;5.436;2023-02-19T04:55:29;101816.75;;;17.94;100.00
48846;BME280;34665;51.886;5.436;2023-02-19T04:57:55;101811.06;;;17.05;100.00
48846;BME280;34665;51.886;5.436;2023-02-19T05:00:20;101814.72;;;16.72;100.00
48846;BME280;34665;51.886;5.436;2023-02-19T05:02:45;101825.63;;;17.04;100.00
48846;BME280;34665;51.886;5.436;2023-02-19T05:05:11;101833.09;;;17.16;100.00
48846;BME280;34665;51.886;5.436;2023-02-19T05:07:37;101830.56;;;16.62;100.00
48846;BME280;34665;51.886;5.436;2023-02-19T05:10:02;101827.22;;;16.60;100.00
48846;BME280;34665;51.886;5.436;2023-02-19T05:12:29;101831.16;;;17.23;100.00
48846;BME280;34665;51.886;5.436;2023-02-19T05:14:56;101836.06;;;17.72;100.00
48846;BME280;34665;51.886;5.436;2023-02-19T05:17:21;101841.19;;;17.55;100.00
48846;BME280;34665;51.886;5.436;2023-02-19T05:19:47;101843.25;;;17.20;100.00
48846;BME280;34665;51.886;5.436;2023-02-19T05:22:12;101848.97;;;17.38;100.00
48846;BME280;34665;51.886;5.436;2023-02-19T05:24:38;101844.44;;;17.31;100.00
48846;BME280;34665;51.886;5.436;2023-02-19T05:27:03;101843.66;;;17.88;100.00
48846;BME280;34665;51.886;5.436;2023-02-19T05:29:30;101850.03;;;17.69;100.00
48846;BME280;34665;51.886;5.436;2023-02-19T05:31:55;101852.06;;;17.80;100.00
48846;BME280;34665;51.886;5.436;2023-02-19T05:34:22;101858.03;;;17.11;100.00
48846;BME280;34665;51.886;5.436;2023-02-19T05:36:48;101859.31;;;17.47;100.00
48846;BME280;34665;51.886;5.436;2023-02-19T05:39:13;101860.41;;;17.72;100.00
48846;BME280;34665;51.886;5.436;2023-02-19T05:41:39;101858.78;;;17.96;100.00
48846;BME280;34665;51.886;5.436;2023-02-19T05:44:04;101846.69;;;16.89;100.00
48846;BME280;34665;51.886;5.436;2023-02-19T05:46:30;101853.59;;;17.30;100.00
48846;BME280;34665;51.886;5.436;2023-02-19T05:48:56;101860.59;;;18.09;100.00
48846;BME280;34665;51.886;5.436;2023-02-19T05:51:25;101850.31;;;17.86;100.00
48846;BME280;34665;51.886;5.436;2023-02-19T05:53:51;101852.31;;;17.33;100.00
48846;BME280;34665;51.886;5.436;2023-02-19T05:56:33;101852.94;;;17.99;100.00
48846;BME280;34665;51.886;5.436;2023-02-19T05:59:03;101870.56;;;18.09;100.00
48846;BME280;34665;51.886;5.436;2023-02-19T06:01:31;101862.38;;;17.19;100.00
48846;BME280;34665;51.886;5.436;2023-02-19T06:03:57;101869.53;;;18.35;100.00
48846;BME280;34665;51.886;5.436;2023-02-19T06:06:23;101868.16;;;17.94;100.00
48846;BME280;34665;51.886;5.436;2023-02-19T06:08:49;101859.00;;;17.30;100.00
48846;BME280;34665;51.886;5.436;2023-02-19T06:11:16;101862.16;;;17.59;100.00
48846;BME280;34665;51.886;5.436;2023-02-19T06:13:42;101872.78;;;17.93;100.00
48846;BME280;34665;51.886;5.436;2023-02-19T06:16:09;101874.06;;;17.84;100.00
48846;BME280;34665;51.886;5.436;2023-02-19T06:18:35;101882.47;;;17.75;100.00
48846;BME280;34665;51.886;5.436;2023-02-19T06:21:05;101881.94;;;17.14;100.00
48846;BME280;34665;51.886;5.436;2023-02-19T06:23:32;101897.13;;;17.93;100.00
48846;BME280;34665;51.886;5.436;2023-02-19T06:26:21;101896.88;;;17.69;100.00
48846;BME280;34665;51.886;5.436;2023-02-19T06:28:48;101904.03;;;17.50;100.00
48846;BME280;34665;51.886;5.436;2023-02-19T06:31:15;101918.09;;;17.98;100.00
48846;BME280;34665;51.886;5.436;2023-02-19T06:33:41;101913.59;;;17.53;100.00
48846;BME280;34665;51.886;5.436;2023-02-19T06:36:10;101917.59;;;17.43;100.00
48846;BME280;34665;51.886;5.436;2023-02-19T06:38:36;101926.03;;;17.60;100.00
48846;BME280;34665;51.886;5.436;2023-02-19T06:41:04;101926.34;;;16.39;100.00
48846;BME280;34665;51.886;5.436;2023-02-19T06:43:31;101939.09;;;17.25;100.00
48846;BME280;34665;51.886;5.436;2023-02-19T06:46:00;101925.47;;;17.84;100.00
48846;BME280;34665;51.886;5.436;2023-02-19T06:48:26;101937.16;;;18.16;100.00
48846;BME280;34665;51.886;5.436;2023-02-19T06:50:52;101927.00;;;17.73;100.00
48846;BME280;34665;51.886;5.436;2023-02-19T06:53:17;101926.97;;;17.80;100.00
48846;BME280;34665;51.886;5.436;2023-02-19T06:55:43;101930.25;;;17.88;100.00
48846;BME280;34665;51.886;5.436;2023-02-19T06:58:09;101929.78;;;16.94;100.00
48846;BME280;34665;51.886;5.436;2023-02-19T07:00:34;101929.22;;;17.44;100.00
48846;BME280;34665;51.886;5.436;2023-02-19T07:03:00;101935.41;;;17.58;100.00
48846;BME280;34665;51.886;5.436;2023-02-19T07:05:26;101939.28;;;17.23;100.00
48846;BME280;34665;51.886;5.436;2023-02-19T07:07:51;101948.50;;;17.09;100.00
48846;BME280;34665;51.886;5.436;2023-02-19T07:10:17;101949.06;;;17.70;100.00
48846;BME280;34665;51.886;5.436;2023-02-19T07:12:42;101960.16;;;17.61;100.00
48846;BME280;34665;51.886;5.436;2023-02-19T07:15:08;101962.56;;;17.24;100.00
48846;BME280;34665;51.886;5.436;2023-02-19T07:17:34;101970.56;;;17.97;100.00
48846;BME280;34665;51.886;5.436;2023-02-19T07:20:00;101961.56;;;17.71;100.00
48846;BME280;34665;51.886;5.436;2023-02-19T07:22:25;101973.53;;;17.88;100.00
48846;BME280;34665;51.886;5.436;2023-02-19T07:24:51;101983.78;;;17.80;100.00
48846;BME280;34665;51.886;5.436;2023-02-19T07:27:16;101987.72;;;17.31;100.00
48846;BME280;34665;51.886;5.436;2023-02-19T07:29:42;101981.19;;;17.53;100.00
48846;BME280;34665;51.886;5.436;2023-02-19T07:32:08;101989.81;;;17.82;100.00
48846;BME280;34665;51.886;5.436;2023-02-19T07:34:33;101987.59;;;16.45;100.00
48846;BME280;34665;51.886;5.436;2023-02-19T07:36:59;101997.75;;;17.70;100.00
48846;BME280;34665;51.886;5.436;2023-02-19T07:39:24;101991.59;;;17.56;100.00
48846;BME280;34665;51.886;5.436;2023-02-19T07:41:50;102009.91;;;18.06;100.00
48846;BME280;34665;51.886;5.436;2023-02-19T07:44:24;102016.50;;;17.71;100.00
48846;BME280;34665;51.886;5.436;2023-02-19T07:46:49;102017.38;;;17.65;100.00
48846;BME280;34665;51.886;5.436;2023-02-19T07:49:15;102017.13;;;17.73;100.00
48846;BME280;34665;51.886;5.436;2023-02-19T07:51:41;102022.06;;;16.84;100.00
48846;BME280;34665;51.886;5.436;2023-02-19T07:54:08;102029.03;;;17.52;100.00
48846;BME280;34665;51.886;5.436;2023-02-19T07:56:34;102030.22;;;17.70;100.00
48846;BME280;34665;51.886;5.436;2023-02-19T07:58:59;102026.03;;;17.74;100.00
48846;BME280;34665;51.886;5.436;2023-02-19T08:01:25;102036.25;;;17.72;100.00
48846;BME280;34665;51.886;5.436;2023-02-19T08:04:17;102052.47;;;18.24;100.00
48846;BME280;34665;51.886;5.436;2023-02-19T08:06:42;102042.06;;;18.28;100.00
48846;BME280;34665;51.886;5.436;2023-02-19T08:09:08;102039.47;;;18.40;100.00
48846;BME280;34665;51.886;5.436;2023-02-19T08:11:34;102052.09;;;17.68;100.00
48846;BME280;34665;51.886;5.436;2023-02-19T08:14:18;102053.47;;;18.37;100.00
48846;BME280;34665;51.886;5.436;2023-02-19T08:16:51;102059.97;;;18.29;100.00
48846;BME280;34665;51.886;5.436;2023-02-19T08:19:17;102056.09;;;18.43;100.00
48846;BME280;34665;51.886;5.436;2023-02-19T08:21:43;102058.91;;;18.62;100.00
48846;BME280;34665;51.886;5.436;2023-02-19T08:24:09;102060.19;;;18.20;100.00
48846;BME280;34665;51.886;5.436;2023-02-19T08:26:34;102064.94;;;18.32;100.00
48846;BME280;34665;51.886;5.436;2023-02-19T08:29:02;102066.31;;;18.09;100.00
48846;BME280;34665;51.886;5.436;2023-02-19T08:31:29;102075.38;;;18.60;100.00
48846;BME280;34665;51.886;5.436;2023-02-19T08:33:54;102080.91;;;18.01;100.00
48846;BME280;34665;51.886;5.436;2023-02-19T08:36:20;102083.19;;;18.04;100.00
48846;BME280;34665;51.886;5.436;2023-02-19T08:38:45;102090.84;;;17.35;100.00
48846;BME280;34665;51.886;5.436;2023-02-19T08:41:12;102091.59;;;18.35;100.00
48846;BME280;34665;51.886;5.436;2023-02-19T08:43:39;102091.41;;;17.64;100.00
48846;BME280;34665;51.886;5.436;2023-02-19T08:46:05;102092.03;;;18.25;100.00
48846;BME280;34665;51.886;5.436;2023-02-19T08:48:32;102090.63;;;18.23;100.00
48846;BME280;34665;51.886;5.436;2023-02-19T08:50:59;102090.88;;;18.08;100.00
48846;BME280;34665;51.886;5.436;2023-02-19T08:53:29;102111.22;;;18.62;100.00
48846;BME280;34665;51.886;5.436;2023-02-19T08:55:56;102114.13;;;18.61;100.00
48846;BME280;34665;51.886;5.436;2023-02-19T08:58:21;102105.44;;;18.52;100.00
48846;BME280;34665;51.886;5.436;2023-02-19T09:00:47;102118.66;;;18.35;100.00
48846;BME280;34665;51.886;5.436;2023-02-19T09:03:12;102112.91;;;18.18;100.00
48846;BME280;34665;51.886;5.436;2023-02-19T09:05:38;102118.38;;;18.04;100.00
48846;BME280;34665;51.886;5.436;2023-02-19T09:08:04;102111.03;;;16.92;100.00
48846;BME280;34665;51.886;5.436;2023-02-19T09:10:29;102120.63;;;17.22;100.00
48846;BME280;34665;51.886;5.436;2023-02-19T09:12:55;102113.44;;;17.88;100.00
48846;BME280;34665;51.886;5.436;2023-02-19T09:15:20;102105.78;;;17.58;100.00
48846;BME280;34665;51.886;5.436;2023-02-19T09:17:52;102103.38;;;17.16;100.00
48846;BME280;34665;51.886;5.436;2023-02-19T09:20:18;102109.56;;;16.96;100.00
48846;BME280;34665;51.886;5.436;2023-02-19T09:22:43;102116.53;;;17.85;100.00
48846;BME280;34665;51.886;5.436;2023-02-19T09:25:09;102116.34;;;17.86;100.00
48846;BME280;34665;51.886;5.436;2023-02-19T09:27:34;102114.78;;;17.38;100.00
48846;BME280;34665;51.886;5.436;2023-02-19T09:30:00;102133.44;;;17.80;100.00
48846;BME280;34665;51.886;5.436;2023-02-19T09:32:25;102122.69;;;17.53;100.00
48846;BME280;34665;51.886;5.436;2023-02-19T09:34:54;102130.13;;;17.65;100.00
48846;BME280;34665;51.886;5.436;2023-02-19T09:37:24;102133.38;;;17.94;100.00
48846;BME280;34665;51.886;5.436;2023-02-19T09:39:49;102140.16;;;18.62;100.00
48846;BME280;34665;51.886;5.436;2023-02-19T09:42:17;102159.31;;;17.36;100.00
48846;BME280;34665;51.886;5.436;2023-02-19T09:44:47;102168.75;;;17.99;100.00
48846;BME280;34665;51.886;5.436;2023-02-19T09:47:19;102179.81;;;17.90;100.00
48846;BME280;34665;51.886;5.436;2023-02-19T09:49:47;102184.50;;;18.36;100.00
48846;BME280;34665;51.886;5.436;2023-02-19T09:52:29;102187.56;;;17.80;100.00
48846;BME280;34665;51.886;5.436;2023-02-19T09:55:03;102193.50;;;18.23;100.00
48846;BME280;34665;51.886;5.436;2023-02-19T09:57:31;102198.66;;;18.38;100.00
48846;BME280;34665;51.886;5.436;2023-02-19T10:02:25;102208.88;;;18.36;100.00
48846;BME280;34665;51.886;5.436;2023-02-19T10:04:52;102209.19;;;17.60;100.00
48846;BME280;34665;51.886;5.436;2023-02-19T10:07:21;102216.25;;;17.81;100.00
48846;BME280;34665;51.886;5.436;2023-02-19T10:10:02;102214.22;;;18.88;100.00
48846;BME280;34665;51.886;5.436;2023-02-19T10:12:31;102214.31;;;19.13;100.00
48846;BME280;34665;51.886;5.436;2023-02-19T10:15:03;102230.09;;;19.99;100.00
48846;BME280;34665;51.886;5.436;2023-02-19T10:17:31;102234.28;;;20.14;100.00
48846;BME280;34665;51.886;5.436;2023-02-19T10:20:00;102236.03;;;21.49;100.00
48846;BME280;34665;51.886;5.436;2023-02-19T10:22:27;102239.66;;;21.31;100.00
48846;BME280;34665;51.886;5.436;2023-02-19T10:24:54;102248.09;;;20.99;100.00
48846;BME280;34665;51.886;5.436;2023-02-19T10:27:20;102249.81;;;19.37;100.00
48846;BME280;34665;51.886;5.436;2023-02-19T10:29:48;102248.88;;;19.75;100.00
48846;BME280;34665;51.886;5.436;2023-02-19T10:32:18;102240.78;;;19.69;100.00
48846;BME280;34665;51.886;5.436;2023-02-19T10:35:06;102257.41;;;20.23;100.00
48846;BME280;34665;51.886;5.436;2023-02-19T10:37:32;102266.78;;;20.02;100.00
48846;BME280;34665;51.886;5.436;2023-02-19T10:39:59;102268.41;;;19.84;100.00
48846;BME280;34665;51.886;5.436;2023-02-19T10:42:25;102265.16;;;19.75;100.00
48846;BME280;34665;51.886;5.436;2023-02-19T10:44:55;102273.44;;;20.06;100.00
48846;BME280;34665;51.886;5.436;2023-02-19T10:47:24;102275.38;;;19.99;100.00
48846;BME280;34665;51.886;5.436;2023-02-19T10:49:51;102277.97;;;19.87;100.00
48846;BME280;34665;51.886;5.436;2023-02-19T10:52:24;102281.88;;;19.98;100.00
48846;BME280;34665;51.886;5.436;2023-02-19T10:54:54;102282.81;;;20.29;100.00
48846;BME280;34665;51.886;5.436;2023-02-19T11:02:42;102286.38;;;20.67;100.00
48846;BME280;34665;51.886;5.436;2023-02-19T11:07:34;102289.31;;;20.84;100.00
48846;BME280;34665;51.886;5.436;2023-02-19T11:10:00;102282.94;;;20.53;100.00
48846;BME280;34665;51.886;5.436;2023-02-19T11:12:27;102282.38;;;20.32;100.00
48846;BME280;34665;51.886;5.436;2023-02-19T11:14:54;102265.53;;;19.79;100.00
48846;BME280;34665;51.886;5.436;2023-02-19T11:17:25;102260.09;;;19.28;100.00
48846;BME280;34665;51.886;5.436;2023-02-19T11:19:59;102252.53;;;19.62;100.00
48846;BME280;34665;51.886;5.436;2023-02-19T11:22:31;102257.63;;;19.52;100.00
48846;BME280;34665;51.886;5.436;2023-02-19T11:25:05;102256.72;;;19.33;100.00
48846;BME280;34665;51.886;5.436;2023-02-19T11:27:32;102264.63;;;19.02;100.00
48846;BME280;34665;51.886;5.436;2023-02-19T11:32:45;102265.47;;;18.51;100.00
48846;BME280;34665;51.886;5.436;2023-02-19T11:35:19;102279.25;;;19.01;100.00
48846;BME280;34665;51.886;5.436;2023-02-19T11:37:54;102265.78;;;18.74;100.00
48846;BME280;34665;51.886;5.436;2023-02-19T11:40:28;102270.88;;;18.57;100.00
48846;BME280;34665;51.886;5.436;2023-02-19T11:46:06;102279.50;;;17.87;100.00
48846;BME280;34665;51.886;5.436;2023-02-19T11:48:44;102277.13;;;18.97;100.00
48846;BME280;34665;51.886;5.436;2023-02-19T11:51:26;102286.94;;;19.04;100.00
48846;BME280;34665;51.886;5.436;2023-02-19T11:54:16;102283.94;;;19.13;100.00
48846;BME280;34665;51.886;5.436;2023-02-19T11:56:43;102282.44;;;19.56;100.00
48846;BME280;34665;51.886;5.436;2023-02-19T11:59:28;102287.97;;;19.68;100.00
48846;BME280;34665;51.886;5.436;2023-02-19T12:02:11;102281.59;;;20.25;100.00
48846;BME280;34665;51.886;5.436;2023-02-19T12:15:48;102285.25;;;20.37;98.61
48846;BME280;34665;51.886;5.436;2023-02-19T12:26:15;102285.50;;;19.59;100.00
48846;BME280;34665;51.886;5.436;2023-02-19T12:29:02;102287.09;;;19.10;100.00
48846;BME280;34665;51.886;5.436;2023-02-19T12:34:43;102277.38;;;19.59;100.00
48846;BME280;34665;51.886;5.436;2023-02-19T12:37:41;102282.38;;;20.13;97.94
48846;BME280;34665;51.886;5.436;2023-02-19T12:40:20;102292.63;;;20.86;94.94
48846;BME280;34665;51.886;5.436;2023-02-19T12:45:24;102287.97;;;19.68;96.71
48846;BME280;34665;51.886;5.436;2023-02-19T12:48:04;102281.91;;;18.62;97.87
48846;BME280;34665;51.886;5.436;2023-02-19T12:50:33;102274.09;;;17.87;100.00
48846;BME280;34665;51.886;5.436;2023-02-19T12:55:39;102276.34;;;18.89;98.58
48846;BME280;34665;51.886;5.436;2023-02-19T12:58:12;102299.03;;;18.49;100.00
48846;BME280;34665;51.886;5.436;2023-02-19T13:00:52;102306.00;;;18.77;100.00
48846;BME280;34665;51.886;5.436;2023-02-19T13:08:44;102317.25;;;18.02;100.00
48846;BME280;34665;51.886;5.436;2023-02-19T13:11:23;102330.66;;;17.28;100.00
48846;BME280;34665;51.886;5.436;2023-02-19T13:13:58;102311.38;;;17.98;100.00
48846;BME280;34665;51.886;5.436;2023-02-19T13:16:26;102309.28;;;18.00;100.00
48846;BME280;34665;51.886;5.436;2023-02-19T13:18:59;102313.44;;;17.49;100.00
48846;BME280;34665;51.886;5.436;2023-02-19T13:21:28;102316.75;;;17.51;100.00
48846;BME280;34665;51.886;5.436;2023-02-19T13:24:46;102329.50;;;18.04;100.00
48846;BME280;34665;51.886;5.436;2023-02-19T13:30:21;102339.72;;;18.23;100.00
48846;BME280;34665;51.886;5.436;2023-02-19T13:36:03;102350.31;;;17.90;100.00
48846;BME280;34665;51.886;5.436;2023-02-19T13:38:39;102349.69;;;18.09;100.00
48846;BME280;34665;51.886;5.436;2023-02-19T13:41:19;102348.69;;;18.03;100.00
48846;BME280;34665;51.886;5.436;2023-02-19T13:43:53;102342.41;;;18.09;100.00
48846;BME280;34665;51.886;5.436;2023-02-19T13:46:20;102348.03;;;18.08;100.00
48846;BME280;34665;51.886;5.436;2023-02-19T13:48:46;102351.91;;;18.72;100.00
48846;BME280;34665;51.886;5.436;2023-02-19T13:56:42;102369.03;;;18.46;100.00
48846;BME280;34665;51.886;5.436;2023-02-19T13:59:33;102361.09;;;17.57;100.00
48846;BME280;34665;51.886;5.436;2023-02-19T14:14:45;102386.53;;;18.43;100.00
48846;BME280;34665;51.886;5.436;2023-02-19T14:17:41;102391.16;;;18.16;100.00
48846;BME280;34665;51.886;5.436;2023-02-19T14:30:34;102390.06;;;17.97;100.00
48846;BME280;34665;51.886;5.436;2023-02-19T14:33:08;102392.81;;;18.03;100.00
48846;BME280;34665;51.886;5.436;2023-02-19T14:35:44;102396.78;;;18.28;100.00
48846;BME280;34665;51.886;5.436;2023-02-19T14:38:17;102391.56;;;18.19;100.00
48846;BME280;34665;51.886;5.436;2023-02-19T14:40:45;102390.72;;;18.32;100.00